createdAt,value
2018-11-25T00:00:17.832Z,91.96
2018-11-25T00:01:17.829Z,92.06
2018-11-25T00:02:17.841Z,92.06
2018-11-25T00:03:17.800Z,91.75
2018-11-25T00:04:18.673Z,91.96
2018-11-25T00:05:17.798Z,92.06
2018-11-25T00:06:17.769Z,91.96
2018-11-25T00:07:17.783Z,92.16
2018-11-25T00:08:17.742Z,91.96
2018-11-25T00:09:17.732Z,92.31
2018-11-25T00:10:17.825Z,92.93
2018-11-25T00:11:17.708Z,92.82
2018-11-25T00:12:17.718Z,92.82
2018-11-25T00:13:17.847Z,93.54
2018-11-25T00:14:17.677Z,92.72
2018-11-25T00:15:17.661Z,93.03
2018-11-25T00:16:17.687Z,92.72
2018-11-25T00:17:17.675Z,93.03
2018-11-25T00:18:18.176Z,93.54
2018-11-25T00:19:17.619Z,93.65
2018-11-25T00:20:17.611Z,92.72
2018-11-25T00:21:17.593Z,92.51
2018-11-25T00:22:17.620Z,93.38
2018-11-25T00:23:17.582Z,93.03
2018-11-25T00:24:17.814Z,93.34
2018-11-25T00:25:17.547Z,93.44
2018-11-25T00:26:17.537Z,93.38
2018-11-25T00:27:17.558Z,92.72
2018-11-25T00:28:17.524Z,93.07
2018-11-25T00:29:17.503Z,93.07
2018-11-25T00:30:17.492Z,92.55
2018-11-25T00:31:17.486Z,93.07
2018-11-25T00:32:17.495Z,93.28
2018-11-25T00:33:17.457Z,93.24
2018-11-25T00:34:17.534Z,93.38
2018-11-25T00:35:17.438Z,93.44
2018-11-25T00:36:17.422Z,93.13
2018-11-25T00:37:17.453Z,94.00
2018-11-25T00:38:17.452Z,93.28
2018-11-25T00:39:17.393Z,93.38
2018-11-25T00:40:17.389Z,93.59
2018-11-25T00:41:17.445Z,93.38
2018-11-25T00:42:17.412Z,93.38
2018-11-25T00:43:17.350Z,93.49
2018-11-25T00:44:17.335Z,93.38
2018-11-25T00:45:17.328Z,93.18
2018-11-25T00:46:17.308Z,93.49
2018-11-25T00:47:17.329Z,93.38
2018-11-25T00:48:17.288Z,93.69
2018-11-25T00:49:17.277Z,93.69
2018-11-25T00:50:17.265Z,93.49
2018-11-25T00:51:17.258Z,93.38
2018-11-25T00:52:17.265Z,93.38
2018-11-25T00:53:17.230Z,92.76
2018-11-25T00:54:17.220Z,92.86
2018-11-25T00:55:17.226Z,93.49
2018-11-25T00:56:17.210Z,93.38
2018-11-25T00:57:17.217Z,93.28
2018-11-25T00:58:17.187Z,92.55
2018-11-25T00:59:17.174Z,92.86
2018-11-25T01:00:17.158Z,93.38
2018-11-25T01:01:17.145Z,93.28
2018-11-25T01:02:17.168Z,93.69
2018-11-25T01:03:17.121Z,92.76
2018-11-25T01:04:17.113Z,93.38
2018-11-25T01:05:17.102Z,92.97
2018-11-25T01:06:17.090Z,93.18
2018-11-25T01:07:17.106Z,93.28
2018-11-25T01:08:17.070Z,92.76
2018-11-25T01:09:17.052Z,93.32
2018-11-25T01:10:17.038Z,92.86
2018-11-25T01:11:17.028Z,92.86
2018-11-25T01:12:17.041Z,93.59
2018-11-25T01:13:17.008Z,93.59
2018-11-25T01:14:17.010Z,93.59
2018-11-25T01:15:16.993Z,93.49
2018-11-25T01:16:16.971Z,93.18
2018-11-25T01:17:16.965Z,93.59
2018-11-25T01:18:16.978Z,93.49
2018-11-25T01:19:16.938Z,92.86
2018-11-25T01:20:16.946Z,93.49
2018-11-25T01:21:16.920Z,92.76
2018-11-25T01:22:16.909Z,92.76
2018-11-25T01:23:16.917Z,93.28
2018-11-25T01:24:16.883Z,92.66
2018-11-25T01:25:16.879Z,92.76
2018-11-25T01:26:16.862Z,93.59
2018-11-25T01:27:16.862Z,93.07
2018-11-25T01:28:16.863Z,92.86
2018-11-25T01:29:16.837Z,93.18
2018-11-25T01:30:16.817Z,92.82
2018-11-25T01:31:16.803Z,92.51
2018-11-25T01:32:16.797Z,92.82
2018-11-25T01:33:16.813Z,92.72
2018-11-25T01:34:16.776Z,92.46
2018-11-25T01:35:16.758Z,92.51
2018-11-25T01:36:16.748Z,92.61
2018-11-25T01:37:16.738Z,92.51
2018-11-25T01:38:16.750Z,91.79
2018-11-25T01:39:16.716Z,91.89
2018-11-25T01:40:16.710Z,91.79
2018-11-25T01:41:16.695Z,92.04
2018-11-25T01:42:16.679Z,92.31
2018-11-25T01:43:16.692Z,92.35
2018-11-25T01:44:16.662Z,92.04
2018-11-25T01:45:16.647Z,91.89
2018-11-25T01:46:16.652Z,92.04
2018-11-25T01:47:16.627Z,91.73
2018-11-25T01:48:16.640Z,91.94
2018-11-25T01:49:16.602Z,91.89
2018-11-25T01:50:16.598Z,91.94
2018-11-25T01:51:16.581Z,91.83
2018-11-25T01:52:16.583Z,92.19
2018-11-25T01:53:16.584Z,92.04
2018-11-25T01:54:16.545Z,92.76
2018-11-25T01:55:16.535Z,92.97
2018-11-25T01:56:16.526Z,92.80
2018-11-25T01:57:16.527Z,92.76
2018-11-25T01:58:16.536Z,93.59
2018-11-25T01:59:16.509Z,93.69
2018-11-25T02:00:16.477Z,92.97
2018-11-25T02:01:16.472Z,93.07
2018-11-25T02:02:16.460Z,92.46
2018-11-25T02:03:16.472Z,92.46
2018-11-25T02:04:16.435Z,92.66
2018-11-25T02:05:16.420Z,92.35
2018-11-25T02:06:16.408Z,92.76
2018-11-25T02:07:16.406Z,92.66
2018-11-25T02:08:16.422Z,92.76
2018-11-25T02:09:16.379Z,92.97
2018-11-25T02:10:16.363Z,92.97
2018-11-25T02:11:16.353Z,92.76
2018-11-25T02:12:16.341Z,92.04
2018-11-25T02:13:16.365Z,91.79
2018-11-25T02:14:16.318Z,91.63
2018-11-25T02:15:16.308Z,92.10
2018-11-25T02:16:16.294Z,91.94
2018-11-25T02:17:16.286Z,91.58
2018-11-25T02:18:16.298Z,92.14
2018-11-25T02:19:16.278Z,91.89
2018-11-25T02:20:16.254Z,92.10
2018-11-25T02:21:16.240Z,91.89
2018-11-25T02:22:16.229Z,91.89
2018-11-25T02:23:16.243Z,91.79
2018-11-25T02:24:16.212Z,91.48
2018-11-25T02:25:16.242Z,90.97
2018-11-25T02:26:16.213Z,92.21
2018-11-25T02:27:16.173Z,92.10
2018-11-25T02:28:16.186Z,92.10
2018-11-25T02:29:16.150Z,91.79
2018-11-25T02:30:16.142Z,92.21
2018-11-25T02:31:16.129Z,91.89
2018-11-25T02:32:16.128Z,92.21
2018-11-25T02:33:16.135Z,92.00
2018-11-25T02:34:16.097Z,92.41
2018-11-25T02:35:16.082Z,92.21
2018-11-25T02:36:16.074Z,92.04
2018-11-25T02:37:16.058Z,92.04
2018-11-25T02:38:16.081Z,91.89
2018-11-25T02:39:16.039Z,91.94
2018-11-25T02:40:16.026Z,92.25
2018-11-25T02:41:16.012Z,92.46
2018-11-25T02:42:16.005Z,92.00
2018-11-25T02:43:16.019Z,92.04
2018-11-25T02:44:15.980Z,92.10
2018-11-25T02:45:15.979Z,92.35
2018-11-25T02:46:15.962Z,92.25
2018-11-25T02:47:15.949Z,91.94
2018-11-25T02:48:15.959Z,92.35
2018-11-25T02:49:15.930Z,92.55
2018-11-25T02:50:15.912Z,92.76
2018-11-25T02:51:15.900Z,92.35
2018-11-25T02:52:15.904Z,92.46
2018-11-25T02:53:15.911Z,93.22
2018-11-25T02:54:15.872Z,93.18
2018-11-25T02:55:15.859Z,92.86
2018-11-25T02:56:15.846Z,92.55
2018-11-25T02:57:15.838Z,92.66
2018-11-25T02:58:15.856Z,92.76
2018-11-25T02:59:15.817Z,93.18
2018-11-25T03:00:15.804Z,93.28
2018-11-25T03:01:15.788Z,92.46
2018-11-25T03:02:15.776Z,92.46
2018-11-25T03:03:15.837Z,92.55
2018-11-25T03:04:15.765Z,92.97
2018-11-25T03:05:15.748Z,93.18
2018-11-25T03:06:15.737Z,93.38
2018-11-25T03:07:15.722Z,93.28
2018-11-25T03:08:15.712Z,93.07
2018-11-25T03:09:15.722Z,92.76
2018-11-25T03:10:15.702Z,92.66
2018-11-25T03:11:15.682Z,92.86
2018-11-25T03:12:15.666Z,92.76
2018-11-25T03:13:15.654Z,92.97
2018-11-25T03:14:15.673Z,92.86
2018-11-25T03:15:15.631Z,92.55
2018-11-25T03:16:15.622Z,92.51
2018-11-25T03:17:15.620Z,92.55
2018-11-25T03:18:15.599Z,92.35
2018-11-25T03:19:15.616Z,92.76
2018-11-25T03:20:15.579Z,92.35
2018-11-25T03:21:15.561Z,92.46
2018-11-25T03:22:15.550Z,92.55
2018-11-25T03:23:15.544Z,92.97
2018-11-25T03:24:15.568Z,92.66
2018-11-25T03:25:15.522Z,92.86
2018-11-25T03:26:15.506Z,92.86
2018-11-25T03:27:15.493Z,93.28
2018-11-25T03:28:15.481Z,93.38
2018-11-25T03:29:15.496Z,93.07
2018-11-25T03:30:15.512Z,93.18
2018-11-25T03:31:15.449Z,93.38
2018-11-25T03:32:15.440Z,92.14
2018-11-25T03:33:15.426Z,92.46
2018-11-25T03:34:15.444Z,92.04
2018-11-25T03:35:15.410Z,91.73
2018-11-25T03:36:15.392Z,92.31
2018-11-25T03:37:15.380Z,92.31
2018-11-25T03:38:15.380Z,92.35
2018-11-25T03:39:15.382Z,92.35
2018-11-25T03:40:15.353Z,92.66
2018-11-25T03:41:15.338Z,92.35
2018-11-25T03:42:15.323Z,92.25
2018-11-25T03:43:15.312Z,91.73
2018-11-25T03:44:15.336Z,92.76
2018-11-25T03:45:15.298Z,93.28
2018-11-25T03:46:15.278Z,92.66
2018-11-25T03:47:15.267Z,92.86
2018-11-25T03:48:15.254Z,93.38
2018-11-25T03:49:15.272Z,92.76
2018-11-25T03:50:15.233Z,93.07
2018-11-25T03:51:15.227Z,93.07
2018-11-25T03:52:15.209Z,93.07
2018-11-25T03:53:15.198Z,93.28
2018-11-25T03:54:15.215Z,92.55
2018-11-25T03:55:15.175Z,92.35
2018-11-25T03:56:15.166Z,92.14
2018-11-25T03:57:15.165Z,91.94
2018-11-25T03:58:15.154Z,92.60
2018-11-25T03:59:15.157Z,92.55
2018-11-25T04:00:15.125Z,93.18
2018-11-25T04:01:15.109Z,92.86
2018-11-25T04:02:15.099Z,93.18
2018-11-25T04:03:15.097Z,92.86
2018-11-25T04:04:15.097Z,93.07
2018-11-25T04:05:15.063Z,92.76
2018-11-25T04:06:15.047Z,93.69
2018-11-25T04:07:15.041Z,93.28
2018-11-25T04:08:15.031Z,92.86
2018-11-25T04:09:15.050Z,92.76
2018-11-25T04:10:15.001Z,92.46
2018-11-25T04:11:14.990Z,92.29
2018-11-25T04:12:14.988Z,92.66
2018-11-25T04:13:14.967Z,92.60
2018-11-25T04:14:14.985Z,92.76
2018-11-25T04:15:14.952Z,93.07
2018-11-25T04:16:14.949Z,92.91
2018-11-25T04:17:14.924Z,92.97
2018-11-25T04:18:14.910Z,92.97
2018-11-25T04:19:14.923Z,92.60
2018-11-25T04:20:14.895Z,92.46
2018-11-25T04:21:14.876Z,92.70
2018-11-25T04:22:14.883Z,92.76
2018-11-25T04:23:14.859Z,92.86
2018-11-25T04:24:14.874Z,92.76
2018-11-25T04:25:14.832Z,92.76
2018-11-25T04:26:14.825Z,93.07
2018-11-25T04:27:14.808Z,93.28
2018-11-25T04:28:14.802Z,93.12
2018-11-25T04:29:14.817Z,93.18
2018-11-25T04:30:14.775Z,93.22
2018-11-25T04:31:14.764Z,93.18
2018-11-25T04:32:14.765Z,93.18
2018-11-25T04:33:14.740Z,93.28
2018-11-25T04:34:14.755Z,92.46
2018-11-25T04:35:14.732Z,92.55
2018-11-25T04:36:14.708Z,92.14
2018-11-25T04:37:14.702Z,92.66
2018-11-25T04:38:14.684Z,92.70
2018-11-25T04:39:14.675Z,92.19
2018-11-25T04:40:14.688Z,92.70
2018-11-25T04:41:14.660Z,92.66
2018-11-25T04:42:14.641Z,92.60
2018-11-25T04:43:14.629Z,92.91
2018-11-25T04:44:14.618Z,92.97
2018-11-25T04:45:14.631Z,93.28
2018-11-25T04:46:14.593Z,93.22
2018-11-25T04:47:14.593Z,92.55
2018-11-25T04:48:14.574Z,92.86
2018-11-25T04:49:14.562Z,92.97
2018-11-25T04:50:14.574Z,92.97
2018-11-25T04:51:14.535Z,92.35
2018-11-25T04:52:14.525Z,92.14
2018-11-25T04:53:14.515Z,92.25
2018-11-25T04:54:14.509Z,92.35
2018-11-25T04:55:14.515Z,92.46
2018-11-25T04:56:14.490Z,91.94
2018-11-25T04:57:14.474Z,92.35
2018-11-25T04:58:14.458Z,91.42
2018-11-25T04:59:14.445Z,92.19
2018-11-25T05:00:14.459Z,91.73
2018-11-25T05:01:14.424Z,91.98
2018-11-25T05:02:14.414Z,92.29
2018-11-25T05:03:14.407Z,92.29
2018-11-25T05:04:14.390Z,92.40
2018-11-25T05:05:14.406Z,92.40
2018-11-25T05:06:14.369Z,92.50
2018-11-25T05:07:14.356Z,92.40
2018-11-25T05:08:14.343Z,92.50
2018-11-25T05:09:14.340Z,92.19
2018-11-25T05:10:14.351Z,92.08
2018-11-25T05:11:14.311Z,92.08
2018-11-25T05:12:14.300Z,92.60
2018-11-25T05:13:14.286Z,92.08
2018-11-25T05:14:14.274Z,92.08
2018-11-25T05:15:14.292Z,92.70
2018-11-25T05:16:14.258Z,92.70
2018-11-25T05:17:14.242Z,93.12
2018-11-25T05:18:14.229Z,92.91
2018-11-25T05:19:14.215Z,92.50
2018-11-25T05:20:14.230Z,92.70
2018-11-25T05:21:14.198Z,92.70
2018-11-25T05:22:14.184Z,92.60
2018-11-25T05:23:14.180Z,93.01
2018-11-25T05:24:14.162Z,93.32
2018-11-25T05:25:14.174Z,93.63
2018-11-25T05:26:14.135Z,93.53
2018-11-25T05:27:14.129Z,93.22
2018-11-25T05:28:14.115Z,93.63
2018-11-25T05:29:14.114Z,93.38
2018-11-25T05:30:14.119Z,93.49
2018-11-25T05:31:14.082Z,93.53
2018-11-25T05:32:14.067Z,93.18
2018-11-25T05:33:14.057Z,93.28
2018-11-25T05:34:14.052Z,93.59
2018-11-25T05:35:14.058Z,92.97
2018-11-25T05:36:14.024Z,92.86
2018-11-25T05:37:14.023Z,92.86
2018-11-25T05:38:14.002Z,92.04
2018-11-25T05:39:13.989Z,92.55
2018-11-25T05:40:14.002Z,92.14
2018-11-25T05:41:13.965Z,92.08
2018-11-25T05:42:13.954Z,92.14
2018-11-25T05:43:13.948Z,92.50
2018-11-25T05:44:13.931Z,92.08
2018-11-25T05:45:13.950Z,92.14
2018-11-25T05:46:13.915Z,92.29
2018-11-25T05:47:13.901Z,93.12
2018-11-25T05:48:13.889Z,93.32
2018-11-25T05:49:13.874Z,92.70
2018-11-25T05:50:13.895Z,93.12
2018-11-25T05:51:13.852Z,93.12
2018-11-25T05:52:13.839Z,92.91
2018-11-25T05:53:13.835Z,92.60
2018-11-25T05:54:13.818Z,92.70
2018-11-25T05:55:13.846Z,92.91
2018-11-25T05:56:13.803Z,93.22
2018-11-25T05:57:13.787Z,93.63
2018-11-25T05:58:13.779Z,93.53
2018-11-25T05:59:13.762Z,93.63
2018-11-25T06:00:13.774Z,93.53
2018-11-25T06:01:13.741Z,93.53
2018-11-25T06:02:13.742Z,93.32
2018-11-25T06:03:13.718Z,93.49
2018-11-25T06:04:13.708Z,93.32
2018-11-25T06:05:13.717Z,93.49
2018-11-25T06:06:13.682Z,93.38
2018-11-25T06:07:13.672Z,93.59
2018-11-25T06:08:13.669Z,93.63
2018-11-25T06:09:13.652Z,93.90
2018-11-25T06:10:13.671Z,93.84
2018-11-25T06:11:13.630Z,94.15
2018-11-25T06:12:13.615Z,94.15
2018-11-25T06:13:13.604Z,94.31
2018-11-25T06:14:13.653Z,94.31
2018-11-25T06:15:13.617Z,94.52
2018-11-25T06:16:13.570Z,94.10
2018-11-25T06:17:13.560Z,94.31
2018-11-25T06:18:13.547Z,94.52
2018-11-25T06:19:13.537Z,94.00
2018-11-25T06:20:13.551Z,94.31
2018-11-25T06:21:13.517Z,94.62
2018-11-25T06:22:13.500Z,94.42
2018-11-25T06:23:13.491Z,94.31
2018-11-25T06:24:13.477Z,94.62
2018-11-25T06:25:13.508Z,94.42
2018-11-25T06:26:13.457Z,95.03
2018-11-25T06:27:13.450Z,94.00
2018-11-25T06:28:13.439Z,93.79
2018-11-25T06:29:13.421Z,94.10
2018-11-25T06:30:13.433Z,93.79
2018-11-25T06:31:13.397Z,93.69
2018-11-25T06:32:13.397Z,93.69
2018-11-25T06:33:13.379Z,93.38
2018-11-25T06:34:13.379Z,93.54
2018-11-25T06:35:13.379Z,93.69
2018-11-25T06:36:13.341Z,93.65
2018-11-25T06:37:13.331Z,93.24
2018-11-25T06:38:13.322Z,93.44
2018-11-25T06:39:13.308Z,93.38
2018-11-25T06:40:13.302Z,93.24
2018-11-25T06:41:13.317Z,93.59
2018-11-25T06:42:13.273Z,93.38
2018-11-25T06:43:13.269Z,93.38
2018-11-25T06:44:13.256Z,93.69
2018-11-25T06:45:13.241Z,93.28
2018-11-25T06:46:13.250Z,93.49
2018-11-25T06:47:13.228Z,93.49
2018-11-25T06:48:13.204Z,93.18
2018-11-25T06:49:13.192Z,93.38
2018-11-25T06:50:13.188Z,93.38
2018-11-25T06:51:13.193Z,93.59
2018-11-25T06:52:13.161Z,93.49
2018-11-25T06:53:13.148Z,93.38
2018-11-25T06:54:13.141Z,93.07
2018-11-25T06:55:13.126Z,93.69
2018-11-25T06:56:13.141Z,93.18
2018-11-25T06:57:13.102Z,93.38
2018-11-25T06:58:13.092Z,93.38
2018-11-25T06:59:13.089Z,93.18
2018-11-25T07:00:13.076Z,93.38
2018-11-25T07:01:13.084Z,93.49
2018-11-25T07:02:13.044Z,93.69
2018-11-25T07:03:13.034Z,93.44
2018-11-25T07:04:13.022Z,93.49
2018-11-25T07:05:13.014Z,93.69
2018-11-25T07:06:13.037Z,93.49
2018-11-25T07:07:12.989Z,93.90
2018-11-25T07:08:12.978Z,93.69
2018-11-25T07:09:12.971Z,93.79
2018-11-25T07:10:12.959Z,93.79
2018-11-25T07:11:12.973Z,93.90
2018-11-25T07:12:12.931Z,93.59
2018-11-25T07:13:12.920Z,93.90
2018-11-25T07:14:12.917Z,93.79
2018-11-25T07:15:12.897Z,94.00
2018-11-25T07:16:12.914Z,93.90
2018-11-25T07:17:12.874Z,93.85
2018-11-25T07:18:12.863Z,93.59
2018-11-25T07:19:12.856Z,94.10
2018-11-25T07:20:12.843Z,94.31
2018-11-25T07:21:12.855Z,94.52
2018-11-25T07:22:12.818Z,94.31
2018-11-25T07:23:12.807Z,94.52
2018-11-25T07:24:12.795Z,94.42
2018-11-25T07:25:12.785Z,94.52
2018-11-25T07:26:12.798Z,94.10
2018-11-25T07:27:12.772Z,94.21
2018-11-25T07:28:18.489Z,94.31
2018-11-25T07:29:13.736Z,94.52
2018-11-25T07:30:12.729Z,94.27
2018-11-25T07:31:12.742Z,94.10
2018-11-25T07:32:12.703Z,93.79
2018-11-25T07:33:12.697Z,94.21
2018-11-25T07:34:12.683Z,94.31
2018-11-25T07:35:12.671Z,94.42
2018-11-25T07:36:12.686Z,94.52
2018-11-25T07:37:12.652Z,94.31
2018-11-25T07:38:12.638Z,94.82
2018-11-25T07:39:12.625Z,94.42
2018-11-25T07:40:12.620Z,94.52
2018-11-25T07:41:12.628Z,94.72
2018-11-25T07:42:12.593Z,94.52
2018-11-25T07:43:12.583Z,94.27
2018-11-25T07:44:12.569Z,94.31
2018-11-25T07:45:12.560Z,94.17
2018-11-25T07:46:12.579Z,93.90
2018-11-25T07:47:12.535Z,93.90
2018-11-25T07:48:12.526Z,94.00
2018-11-25T07:49:12.512Z,94.00
2018-11-25T07:50:12.504Z,93.90
2018-11-25T07:51:12.521Z,93.54
2018-11-25T07:52:12.481Z,93.38
2018-11-25T07:53:12.471Z,93.49
2018-11-25T07:54:12.464Z,93.38
2018-11-25T07:55:12.451Z,93.34
2018-11-25T07:56:12.458Z,93.38
2018-11-25T07:57:12.428Z,93.34
2018-11-25T07:58:12.409Z,93.34
2018-11-25T07:59:12.399Z,93.28
2018-11-25T08:00:12.387Z,92.86
2018-11-25T08:01:12.406Z,92.46
2018-11-25T08:02:12.373Z,92.51
2018-11-25T08:03:12.355Z,92.04
2018-11-25T08:04:12.343Z,92.55
2018-11-25T08:05:12.334Z,92.72
2018-11-25T08:06:12.344Z,92.35
2018-11-25T08:07:12.308Z,92.04
2018-11-25T08:08:12.351Z,92.35
2018-11-25T08:09:12.291Z,92.35
2018-11-25T08:10:12.272Z,92.25
2018-11-25T08:11:12.287Z,92.61
2018-11-25T08:12:12.250Z,92.21
2018-11-25T08:13:12.241Z,92.61
2018-11-25T08:14:12.227Z,92.31
2018-11-25T08:15:12.220Z,92.51
2018-11-25T08:16:12.231Z,92.35
2018-11-25T08:17:12.192Z,91.89
2018-11-25T08:18:12.184Z,92.00
2018-11-25T08:19:12.173Z,92.21
2018-11-25T08:20:12.157Z,91.79
2018-11-25T08:21:12.183Z,92.10
2018-11-25T08:22:12.135Z,91.38
2018-11-25T08:23:12.138Z,90.97
2018-11-25T08:24:12.116Z,91.38
2018-11-25T08:25:12.105Z,91.28
2018-11-25T08:26:12.116Z,91.07
2018-11-25T08:27:12.115Z,91.38
2018-11-25T08:28:12.070Z,91.17
2018-11-25T08:29:12.059Z,90.97
2018-11-25T08:30:12.060Z,91.38
2018-11-25T08:31:12.040Z,91.07
2018-11-25T08:32:12.056Z,91.69
2018-11-25T08:33:12.028Z,92.00
2018-11-25T08:34:12.006Z,91.79
2018-11-25T08:35:11.991Z,91.89
2018-11-25T08:36:11.987Z,91.85
2018-11-25T08:37:11.991Z,92.06
2018-11-25T08:38:11.968Z,92.16
2018-11-25T08:39:11.953Z,91.69
2018-11-25T08:40:11.940Z,91.28
2018-11-25T08:41:11.924Z,90.97
2018-11-25T08:42:11.939Z,91.07
2018-11-25T08:43:11.903Z,90.86
2018-11-25T08:44:11.889Z,91.07
2018-11-25T08:45:11.876Z,92.00
2018-11-25T08:46:11.875Z,92.10
2018-11-25T08:47:11.888Z,92.10
2018-11-25T08:48:11.849Z,91.85
2018-11-25T08:49:11.838Z,91.89
2018-11-25T08:50:11.823Z,92.06
2018-11-25T08:51:11.808Z,91.96
2018-11-25T08:52:11.821Z,91.89
2018-11-25T08:53:11.789Z,91.85
2018-11-25T08:54:11.786Z,91.96
2018-11-25T08:55:11.770Z,91.96
2018-11-25T08:56:11.751Z,91.96
2018-11-25T08:57:11.766Z,92.16
2018-11-25T08:58:11.731Z,91.85
2018-11-25T08:59:11.721Z,91.75
2018-11-25T09:00:11.712Z,91.64
2018-11-25T09:01:11.696Z,91.75
2018-11-25T09:02:11.721Z,91.85
2018-11-25T09:03:11.675Z,91.54
2018-11-25T09:04:11.663Z,91.50
2018-11-25T09:05:11.655Z,91.44
2018-11-25T09:06:11.645Z,91.44
2018-11-25T09:07:11.665Z,91.24
2018-11-25T09:08:11.620Z,90.82
2018-11-25T09:09:11.609Z,90.51
2018-11-25T09:10:11.596Z,91.19
2018-11-25T09:11:11.586Z,90.31
2018-11-25T09:12:11.600Z,90.72
2018-11-25T09:13:11.567Z,90.72
2018-11-25T09:14:11.552Z,90.51
2018-11-25T09:15:11.548Z,90.57
2018-11-25T09:16:11.531Z,90.67
2018-11-25T09:17:11.550Z,90.61
2018-11-25T09:18:11.508Z,91.19
2018-11-25T09:19:11.510Z,90.57
2018-11-25T09:20:11.486Z,90.78
2018-11-25T09:21:11.479Z,91.24
2018-11-25T09:22:11.492Z,90.41
2018-11-25T09:23:11.451Z,90.51
2018-11-25T09:24:11.450Z,90.51
2018-11-25T09:25:11.443Z,90.51
2018-11-25T09:26:11.419Z,89.79
2018-11-25T09:27:11.444Z,90.41
2018-11-25T09:28:11.404Z,90.41
2018-11-25T09:29:11.385Z,90.20
2018-11-25T09:30:11.377Z,89.89
2018-11-25T09:31:11.366Z,91.24
2018-11-25T09:32:11.382Z,90.78
2018-11-25T09:33:11.344Z,91.03
2018-11-25T09:34:11.331Z,89.89
2018-11-25T09:35:11.326Z,89.69
2018-11-25T09:36:11.326Z,90.37
2018-11-25T09:37:11.332Z,90.41
2018-11-25T09:38:11.296Z,90.41
2018-11-25T09:39:11.275Z,90.67
2018-11-25T09:40:11.271Z,90.88
2018-11-25T09:41:11.257Z,90.99
2018-11-25T09:42:11.266Z,91.09
2018-11-25T09:43:11.241Z,91.34
2018-11-25T09:44:11.222Z,90.72
2018-11-25T09:45:11.212Z,90.47
2018-11-25T09:46:11.220Z,90.99
2018-11-25T09:47:11.215Z,90.78
2018-11-25T09:48:11.177Z,90.57
2018-11-25T09:49:11.170Z,91.40
2018-11-25T09:50:11.152Z,90.78
2018-11-25T09:51:11.147Z,90.16
2018-11-25T09:52:11.160Z,90.99
2018-11-25T09:53:11.136Z,90.57
2018-11-25T09:54:11.108Z,90.78
2018-11-25T09:55:11.104Z,90.88
2018-11-25T09:56:11.092Z,90.99
2018-11-25T09:57:11.083Z,90.26
2018-11-25T09:58:11.096Z,91.19
2018-11-25T09:59:11.052Z,89.85
2018-11-25T10:00:11.047Z,90.43
2018-11-25T10:01:11.032Z,90.33
2018-11-25T10:02:11.048Z,90.22
2018-11-25T10:03:11.008Z,90.22
2018-11-25T10:04:10.998Z,90.22
2018-11-25T10:05:10.992Z,90.53
2018-11-25T10:06:10.973Z,90.64
2018-11-25T10:07:10.967Z,90.47
2018-11-25T10:08:10.976Z,89.40
2018-11-25T10:09:10.950Z,89.40
2018-11-25T10:10:10.937Z,88.99
2018-11-25T10:11:10.925Z,89.81
2018-11-25T10:12:10.911Z,89.03
2018-11-25T10:13:10.938Z,89.40
2018-11-25T10:14:10.884Z,89.40
2018-11-25T10:15:10.874Z,89.61
2018-11-25T10:16:10.862Z,89.81
2018-11-25T10:17:10.859Z,90.01
2018-11-25T10:18:10.875Z,90.43
2018-11-25T10:19:10.831Z,90.12
2018-11-25T10:20:10.820Z,90.33
2018-11-25T10:21:10.808Z,90.33
2018-11-25T10:22:10.809Z,90.43
2018-11-25T10:23:10.812Z,89.19
2018-11-25T10:24:10.793Z,89.29
2018-11-25T10:25:10.765Z,88.78
2018-11-25T10:26:10.755Z,89.19
2018-11-25T10:27:10.749Z,89.61
2018-11-25T10:28:10.760Z,90.12
2018-11-25T10:29:10.722Z,90.22
2018-11-25T10:30:10.715Z,88.99
2018-11-25T10:31:10.724Z,88.89
2018-11-25T10:32:10.695Z,89.09
2018-11-25T10:33:10.699Z,89.19
2018-11-25T10:34:10.673Z,89.71
2018-11-25T10:35:10.653Z,89.40
2018-11-25T10:36:10.644Z,89.61
2018-11-25T10:37:10.637Z,89.29
2018-11-25T10:38:10.644Z,88.99
2018-11-25T10:39:10.616Z,89.29
2018-11-25T10:40:10.598Z,88.99
2018-11-25T10:41:10.586Z,88.78
2018-11-25T10:42:10.576Z,88.99
2018-11-25T10:43:10.606Z,88.68
2018-11-25T10:44:10.554Z,88.26
2018-11-25T10:45:10.545Z,88.17
2018-11-25T10:46:10.529Z,88.68
2018-11-25T10:47:10.518Z,89.09
2018-11-25T10:48:10.533Z,88.92
2018-11-25T10:49:10.500Z,89.91
2018-11-25T10:50:10.490Z,89.29
2018-11-25T10:51:10.486Z,88.78
2018-11-25T10:52:10.463Z,89.19
2018-11-25T10:53:10.481Z,90.01
2018-11-25T10:54:10.448Z,90.53
2018-11-25T10:55:10.433Z,89.46
2018-11-25T10:56:10.425Z,88.78
2018-11-25T10:57:10.409Z,88.68
2018-11-25T10:58:10.437Z,88.26
2018-11-25T10:59:10.390Z,89.19
2018-11-25T11:00:10.373Z,89.05
2018-11-25T11:01:10.361Z,88.47
2018-11-25T11:02:10.354Z,88.26
2018-11-25T11:03:10.371Z,88.47
2018-11-25T11:04:10.330Z,88.37
2018-11-25T11:05:10.348Z,87.96
2018-11-25T11:06:10.307Z,88.17
2018-11-25T11:07:10.317Z,87.54
2018-11-25T11:08:10.313Z,88.37
2018-11-25T11:09:10.276Z,88.37
2018-11-25T11:10:10.265Z,88.37
2018-11-25T11:11:10.257Z,88.57
2018-11-25T11:12:10.246Z,88.06
2018-11-25T11:13:10.253Z,88.37
2018-11-25T11:14:10.228Z,88.06
2018-11-25T11:15:10.213Z,88.68
2018-11-25T11:16:10.203Z,88.99
2018-11-25T11:17:10.193Z,88.12
2018-11-25T11:18:10.216Z,87.51
2018-11-25T11:19:10.166Z,87.71
2018-11-25T11:20:10.151Z,88.12
2018-11-25T11:21:10.145Z,88.12
2018-11-25T11:22:10.141Z,87.40
2018-11-25T11:23:10.158Z,88.02
2018-11-25T11:24:10.108Z,87.81
2018-11-25T11:25:10.106Z,88.02
2018-11-25T11:26:10.091Z,87.81
2018-11-25T11:27:10.074Z,87.92
2018-11-25T11:28:10.094Z,88.23
2018-11-25T11:29:10.070Z,88.43
2018-11-25T11:30:10.057Z,88.43
2018-11-25T11:31:13.476Z,87.81
2018-11-25T11:32:10.017Z,88.12
2018-11-25T11:33:10.036Z,88.12
2018-11-25T11:34:09.994Z,88.39
2018-11-25T11:35:09.993Z,87.92
2018-11-25T11:36:09.981Z,88.23
2018-11-25T11:37:09.969Z,88.12
2018-11-25T11:38:09.955Z,87.30
2018-11-25T11:39:09.966Z,87.60
2018-11-25T11:40:10.188Z,87.19
2018-11-25T11:41:09.930Z,87.51
2018-11-25T11:42:09.910Z,87.60
2018-11-25T11:43:09.910Z,88.23
2018-11-25T11:44:09.918Z,87.71
2018-11-25T11:45:09.878Z,88.43
2018-11-25T11:46:09.862Z,88.23
2018-11-25T11:47:09.856Z,88.53
2018-11-25T11:48:09.894Z,88.74
2018-11-25T11:49:09.867Z,88.74
2018-11-25T11:50:09.823Z,88.12
2018-11-25T11:51:09.808Z,87.81
2018-11-25T11:52:09.798Z,87.71
2018-11-25T11:53:09.787Z,88.12
2018-11-25T11:54:09.803Z,88.12
2018-11-25T11:55:09.780Z,87.67
2018-11-25T11:56:09.755Z,87.51
2018-11-25T11:57:09.743Z,86.95
2018-11-25T11:58:09.734Z,86.68
2018-11-25T11:59:09.742Z,86.88
2018-11-25T12:00:09.713Z,86.88
2018-11-25T12:01:09.700Z,86.74
2018-11-25T12:02:09.685Z,87.71
2018-11-25T12:03:09.683Z,87.81
2018-11-25T12:04:09.689Z,87.81
2018-11-25T12:05:09.654Z,87.60
2018-11-25T12:06:09.642Z,87.19
2018-11-25T12:07:09.633Z,87.60
2018-11-25T12:08:09.619Z,87.71
2018-11-25T12:09:09.633Z,87.40
2018-11-25T12:10:09.597Z,87.51
2018-11-25T12:11:09.589Z,87.60
2018-11-25T12:12:09.589Z,86.79
2018-11-25T12:13:09.561Z,86.27
2018-11-25T12:14:09.578Z,86.58
2018-11-25T12:15:09.543Z,86.99
2018-11-25T12:16:09.533Z,86.88
2018-11-25T12:17:09.521Z,86.61
2018-11-25T12:18:09.512Z,86.79
2018-11-25T12:19:09.534Z,87.51
2018-11-25T12:20:09.483Z,88.02
2018-11-25T12:21:09.475Z,87.92
2018-11-25T12:22:09.462Z,87.40
2018-11-25T12:23:09.451Z,87.51
2018-11-25T12:24:09.470Z,87.30
2018-11-25T12:25:09.437Z,86.88
2018-11-25T12:26:09.420Z,87.51
2018-11-25T12:27:09.409Z,87.19
2018-11-25T12:28:09.402Z,87.71
2018-11-25T12:29:09.407Z,87.51
2018-11-25T12:30:09.375Z,87.77
2018-11-25T12:31:09.371Z,87.77
2018-11-25T12:32:09.352Z,87.71
2018-11-25T12:33:09.340Z,87.81
2018-11-25T12:34:09.352Z,88.43
2018-11-25T12:35:09.318Z,88.23
2018-11-25T12:36:09.305Z,87.60
2018-11-25T12:37:09.293Z,88.12
2018-11-25T12:38:09.391Z,88.23
2018-11-25T12:39:09.330Z,87.71
2018-11-25T12:40:09.273Z,87.40
2018-11-25T12:41:09.264Z,87.92
2018-11-25T12:42:09.250Z,88.33
2018-11-25T12:43:09.231Z,87.92
2018-11-25T12:44:09.242Z,88.43
2018-11-25T12:45:09.214Z,87.71
2018-11-25T12:46:09.201Z,87.92
2018-11-25T12:47:09.185Z,87.81
2018-11-25T12:48:09.179Z,87.81
2018-11-25T12:49:09.186Z,87.81
2018-11-25T12:50:09.156Z,87.19
2018-11-25T12:51:09.143Z,87.92
2018-11-25T12:52:09.137Z,87.65